KMMU/MMU METAR and TAF weather

Enter ICAO airport designator
Station Type Date Time Source
KMMU METAR 2021/06/22 21:46 UTC NOAA

KMMU 222146Z 31007KT 10SM BKN038 BKN070 OVC110 19/18 A2980


Station Type Date Time Source
KMMU Decoded METAR 2021/06/22 21:46 UTC NOAA

Morristown Municipal, NJ, United States (KMMU) 40-48N 074-25W
Jun 22, 2021 - 05:46 PM EDT / 2021.06.22 2146 UTC
Wind: from the NW (310 degrees) at 8 MPH (7 KT):0
Visibility: 10 mile(s):0
Sky conditions: overcast
Temperature: 66 F (19 C)
Dew Point: 64 F (18 C)
Relative Humidity: 93%
Pressure (altimeter): 29.8 in. Hg (1009 hPa)
ob: KMMU 222146Z 31007KT 10SM BKN038 BKN070 OVC110 19/18 A2980
cycle: 22

Station Type Date Time Source
KMMU TAF UTC NOAA

Error!

Example: see airport list